createdAt,value
2023-04-15T00:00:01.744Z,0.00
2023-04-15T00:01:01.663Z,0.00
2023-04-15T00:02:01.775Z,0.00
2023-04-15T00:03:01.831Z,0.00
2023-04-15T00:04:01.871Z,0.00
2023-04-15T00:05:01.609Z,0.00
2023-04-15T00:06:01.607Z,0.00
2023-04-15T00:07:01.600Z,0.00
2023-04-15T00:08:01.571Z,0.00
2023-04-15T00:09:01.822Z,0.00
2023-04-15T00:10:01.542Z,0.00
2023-04-15T00:11:01.531Z,0.00
2023-04-15T00:12:01.520Z,0.00
2023-04-15T00:13:01.520Z,0.00
2023-04-15T00:14:01.504Z,0.00
2023-04-15T00:15:01.496Z,0.00
2023-04-15T00:16:01.491Z,0.00
2023-04-15T00:17:01.569Z,0.00
2023-04-15T00:18:01.473Z,0.00
2023-04-15T00:19:01.592Z,0.00
2023-04-15T00:20:01.473Z,0.00
2023-04-15T00:21:01.433Z,0.00
2023-04-15T00:22:01.427Z,0.00
2023-04-15T00:23:01.441Z,0.00
2023-04-15T00:24:01.411Z,0.00
2023-04-15T00:25:01.433Z,0.00
2023-04-15T00:26:01.398Z,0.00
2023-04-15T00:27:01.374Z,0.00
2023-04-15T00:28:01.504Z,0.00
2023-04-15T00:29:01.690Z,0.00
2023-04-15T00:30:01.361Z,0.00
2023-04-15T00:31:01.453Z,0.00
2023-04-15T00:32:01.367Z,0.00
2023-04-15T00:33:01.398Z,0.00
2023-04-15T00:34:01.348Z,0.00
2023-04-15T00:35:01.312Z,0.00
2023-04-15T00:36:01.329Z,0.00
2023-04-15T00:37:01.357Z,0.00
2023-04-15T00:38:01.247Z,0.00
2023-04-15T00:39:01.498Z,0.00
2023-04-15T00:40:01.220Z,0.00
2023-04-15T00:41:01.224Z,0.00
2023-04-15T00:42:01.277Z,0.00
2023-04-15T00:43:01.198Z,0.00
2023-04-15T00:44:01.283Z,0.00
2023-04-15T00:45:01.200Z,0.00
2023-04-15T00:46:01.184Z,0.00
2023-04-15T00:47:01.172Z,0.00
2023-04-15T00:48:01.224Z,0.00
2023-04-15T00:49:01.280Z,0.00
2023-04-15T00:50:01.118Z,0.00
2023-04-15T00:51:01.124Z,0.00
2023-04-15T00:52:01.126Z,0.00
2023-04-15T00:53:01.114Z,0.00
2023-04-15T00:54:01.098Z,0.00
2023-04-15T00:55:01.099Z,0.00
2023-04-15T00:56:01.066Z,0.00
2023-04-15T00:57:01.068Z,0.00
2023-04-15T00:58:01.094Z,0.00
2023-04-15T00:59:01.231Z,0.00
2023-04-15T01:00:01.056Z,0.00
2023-04-15T01:01:01.033Z,0.00
2023-04-15T01:02:01.083Z,0.00
2023-04-15T01:03:01.117Z,0.00
2023-04-15T01:04:01.133Z,0.00
2023-04-15T01:05:00.987Z,0.00
2023-04-15T01:06:03.630Z,0.00
2023-04-15T01:07:00.949Z,0.00
2023-04-15T01:08:00.953Z,0.00
2023-04-15T01:09:01.125Z,0.00
2023-04-15T01:10:00.927Z,0.00
2023-04-15T01:11:00.918Z,0.00
2023-04-15T01:12:00.898Z,0.00
2023-04-15T01:13:00.917Z,0.00
2023-04-15T01:14:00.894Z,0.00
2023-04-15T01:15:00.871Z,0.00
2023-04-15T01:16:00.911Z,0.00
2023-04-15T01:17:00.872Z,0.00
2023-04-15T01:18:00.909Z,0.00
2023-04-15T01:19:01.049Z,0.00
2023-04-15T01:20:00.893Z,0.00
2023-04-15T01:21:00.830Z,0.00
2023-04-15T01:22:00.810Z,0.00
2023-04-15T01:23:00.818Z,0.00
2023-04-15T01:24:00.818Z,0.00
2023-04-15T01:25:00.776Z,0.00
2023-04-15T01:26:00.772Z,0.00
2023-04-15T01:27:00.764Z,0.00
2023-04-15T01:28:00.752Z,0.00
2023-04-15T01:29:00.962Z,0.00
2023-04-15T01:30:00.784Z,0.00
2023-04-15T01:31:00.773Z,0.00
2023-04-15T01:32:00.702Z,0.00
2023-04-15T01:33:00.728Z,0.00
2023-04-15T01:34:00.721Z,0.00
2023-04-15T01:35:00.690Z,0.00
2023-04-15T01:36:00.662Z,0.00
2023-04-15T01:37:00.688Z,0.00
2023-04-15T01:38:00.650Z,0.00
2023-04-15T01:39:00.798Z,0.00
2023-04-15T01:40:00.647Z,0.00
2023-04-15T01:41:00.660Z,0.00
2023-04-15T01:42:00.640Z,0.00
2023-04-15T01:43:00.587Z,0.00
2023-04-15T01:44:00.624Z,0.00
2023-04-15T01:45:00.596Z,0.00
2023-04-15T01:46:00.568Z,0.00
2023-04-15T01:47:00.639Z,0.00
2023-04-15T01:48:00.607Z,0.00
2023-04-15T01:49:00.677Z,0.00
2023-04-15T01:50:00.529Z,0.00
2023-04-15T01:51:00.521Z,0.00
2023-04-15T01:52:00.517Z,0.00
2023-04-15T01:53:00.500Z,0.00
2023-04-15T01:54:00.508Z,0.00
2023-04-15T01:55:00.495Z,0.00
2023-04-15T01:56:00.455Z,0.00
2023-04-15T01:57:00.475Z,0.00
2023-04-15T01:58:00.451Z,0.00
2023-04-15T01:59:00.637Z,0.00
2023-04-15T02:00:00.446Z,0.00
2023-04-15T02:01:00.525Z,0.00
2023-04-15T02:02:00.446Z,0.00
2023-04-15T02:03:00.555Z,0.00
2023-04-15T02:04:00.410Z,0.00
2023-04-15T02:05:00.377Z,0.00
2023-04-15T02:06:00.377Z,0.00
2023-04-15T02:07:00.368Z,0.00
2023-04-15T02:08:00.343Z,0.00
2023-04-15T02:09:00.648Z,0.00
2023-04-15T02:10:00.328Z,0.00
2023-04-15T02:11:00.353Z,0.00
2023-04-15T02:12:00.307Z,0.00
2023-04-15T02:13:00.330Z,0.00
2023-04-15T02:14:00.296Z,0.00
2023-04-15T02:15:00.274Z,0.00
2023-04-15T02:16:00.277Z,0.00
2023-04-15T02:17:00.277Z,0.00
2023-04-15T02:18:00.275Z,0.00
2023-04-15T02:19:00.516Z,0.00
2023-04-15T02:20:00.228Z,0.00
2023-04-15T02:21:00.211Z,0.00
2023-04-15T02:22:00.232Z,0.00
2023-04-15T02:23:00.229Z,0.00
2023-04-15T02:24:00.199Z,0.00
2023-04-15T02:25:00.189Z,0.00
2023-04-15T02:26:00.177Z,0.00
2023-04-15T02:27:00.198Z,0.00
2023-04-15T02:28:00.152Z,0.00
2023-04-15T02:29:00.465Z,0.00
2023-04-15T02:30:00.306Z,0.00
2023-04-15T02:31:00.136Z,0.00
2023-04-15T02:32:00.243Z,0.00
2023-04-15T02:33:00.170Z,0.00
2023-04-15T02:34:00.127Z,0.00
2023-04-15T02:35:00.081Z,0.00
2023-04-15T02:36:00.072Z,0.00
2023-04-15T02:37:00.062Z,0.00
2023-04-15T02:38:00.066Z,0.00
2023-04-15T02:39:00.289Z,0.00
2023-04-15T02:40:00.056Z,0.00
2023-04-15T02:41:00.046Z,0.00
2023-04-15T02:42:00.038Z,0.00
2023-04-15T02:43:00.022Z,0.00
2023-04-15T02:44:00.005Z,0.00
2023-04-15T02:44:59.983Z,0.00
2023-04-15T02:46:00.058Z,0.00
2023-04-15T02:46:59.972Z,0.00
2023-04-15T02:47:59.972Z,0.00
2023-04-15T02:49:00.473Z,0.00
2023-04-15T02:49:59.945Z,0.00
2023-04-15T02:51:00.007Z,0.00
2023-04-15T02:51:59.926Z,0.00
2023-04-15T02:52:59.905Z,0.00
2023-04-15T02:53:59.915Z,0.00
2023-04-15T02:54:59.893Z,0.00
2023-04-15T02:55:59.865Z,0.00
2023-04-15T02:56:59.853Z,0.00
2023-04-15T02:57:59.859Z,0.00
2023-04-15T02:59:00.061Z,0.00
2023-04-15T02:59:59.829Z,0.00
2023-04-15T03:00:59.849Z,0.00
2023-04-15T03:01:59.858Z,0.00
2023-04-15T03:02:59.954Z,0.00
2023-04-15T03:03:59.885Z,0.00
2023-04-15T03:04:59.780Z,0.00
2023-04-15T03:05:59.768Z,0.00
2023-04-15T03:06:59.772Z,0.00
2023-04-15T03:07:59.767Z,0.00
2023-04-15T03:08:59.887Z,0.00
2023-04-15T03:09:59.762Z,0.00
2023-04-15T03:10:59.724Z,0.00
2023-04-15T03:11:59.734Z,0.00
2023-04-15T03:12:59.691Z,0.00
2023-04-15T03:13:59.722Z,0.00
2023-04-15T03:14:59.699Z,0.00
2023-04-15T03:15:59.710Z,0.00
2023-04-15T03:16:59.705Z,0.00
2023-04-15T03:17:59.700Z,0.00
2023-04-15T03:18:59.905Z,0.00
2023-04-15T03:19:59.671Z,0.00
2023-04-15T03:20:59.617Z,0.00
2023-04-15T03:21:59.649Z,0.00
2023-04-15T03:22:59.601Z,0.00
2023-04-15T03:23:59.608Z,0.00
2023-04-15T03:24:59.586Z,0.00
2023-04-15T03:25:59.571Z,0.00
2023-04-15T03:26:59.581Z,0.00
2023-04-15T03:27:59.580Z,0.00
2023-04-15T03:28:59.912Z,0.00
2023-04-15T03:29:59.563Z,0.00
2023-04-15T03:30:59.533Z,0.00
2023-04-15T03:31:59.528Z,0.00
2023-04-15T03:32:59.636Z,0.00
2023-04-15T03:33:59.488Z,0.00
2023-04-15T03:34:59.493Z,0.00
2023-04-15T03:35:59.476Z,0.00
2023-04-15T03:36:59.454Z,0.00
2023-04-15T03:37:59.466Z,0.00
2023-04-15T03:38:59.657Z,0.00
2023-04-15T03:39:59.381Z,0.00
2023-04-15T03:40:59.425Z,0.00
2023-04-15T03:41:59.424Z,0.00
2023-04-15T03:42:59.436Z,0.00
2023-04-15T03:43:59.398Z,0.00
2023-04-15T03:44:59.394Z,0.00
2023-04-15T03:46:01.373Z,0.00
2023-04-15T03:46:59.371Z,0.00
2023-04-15T03:48:15.631Z,0.00
2023-04-15T03:48:59.448Z,0.00
2023-04-15T03:49:59.331Z,0.00
2023-04-15T03:50:59.330Z,0.00
2023-04-15T03:51:59.320Z,0.00
2023-04-15T03:52:59.318Z,0.00
2023-04-15T03:53:59.354Z,0.00
2023-04-15T03:54:59.275Z,0.00
2023-04-15T03:55:59.284Z,0.00
2023-04-15T03:56:59.224Z,0.00
2023-04-15T03:57:59.211Z,0.00
2023-04-15T03:58:59.336Z,0.00
2023-04-15T03:59:59.203Z,0.00
2023-04-15T04:00:59.178Z,0.00
2023-04-15T04:01:59.350Z,0.00
2023-04-15T04:02:59.295Z,0.00
2023-04-15T04:03:59.260Z,0.00
2023-04-15T04:04:59.129Z,0.00
2023-04-15T04:05:59.151Z,0.00
2023-04-15T04:06:59.120Z,0.00
2023-04-15T04:07:59.109Z,0.00
2023-04-15T04:08:59.166Z,0.00
2023-04-15T04:09:59.106Z,0.00
2023-04-15T04:10:59.097Z,0.00
2023-04-15T04:11:59.084Z,0.00
2023-04-15T04:12:59.075Z,0.00
2023-04-15T04:13:59.044Z,0.00
2023-04-15T04:14:59.114Z,0.00
2023-04-15T04:15:59.133Z,0.00
2023-04-15T04:16:59.069Z,0.00
2023-04-15T04:17:59.115Z,0.00
2023-04-15T04:18:59.150Z,0.00
2023-04-15T04:19:58.992Z,0.00
2023-04-15T04:20:58.991Z,0.00
2023-04-15T04:21:58.996Z,0.00
2023-04-15T04:22:58.974Z,0.00
2023-04-15T04:23:58.989Z,0.00
2023-04-15T04:24:58.953Z,0.00
2023-04-15T04:25:58.921Z,0.00
2023-04-15T04:26:58.921Z,0.00
2023-04-15T04:27:58.971Z,0.00
2023-04-15T04:28:59.022Z,0.00
2023-04-15T04:29:58.872Z,0.00
2023-04-15T04:30:58.864Z,0.00
2023-04-15T04:31:58.917Z,0.00
2023-04-15T04:32:59.039Z,0.00
2023-04-15T04:33:58.838Z,0.00
2023-04-15T04:34:58.824Z,0.00
2023-04-15T04:35:58.810Z,0.00
2023-04-15T04:36:58.810Z,0.00
2023-04-15T04:37:58.823Z,5.62
2023-04-15T04:38:58.854Z,5.62
2023-04-15T04:39:58.797Z,5.62
2023-04-15T04:40:58.779Z,5.62
2023-04-15T04:41:58.787Z,5.62
2023-04-15T04:42:58.787Z,5.62
2023-04-15T04:43:58.746Z,5.62
2023-04-15T04:44:58.745Z,5.62
2023-04-15T04:45:58.768Z,5.62
2023-04-15T04:46:58.720Z,11.25
2023-04-15T04:47:58.745Z,11.25
2023-04-15T04:48:58.700Z,11.25
2023-04-15T04:49:58.679Z,11.25
2023-04-15T04:50:58.686Z,11.25
2023-04-15T04:51:58.661Z,11.25
2023-04-15T04:52:58.657Z,11.25
2023-04-15T04:53:58.656Z,11.25
2023-04-15T04:54:58.650Z,16.88
2023-04-15T04:55:58.632Z,16.88
2023-04-15T04:56:58.598Z,16.88
2023-04-15T04:57:58.621Z,16.88
2023-04-15T04:58:58.695Z,16.88
2023-04-15T04:59:58.578Z,16.88
2023-04-15T05:00:58.596Z,16.88
2023-04-15T05:01:58.624Z,22.50
2023-04-15T05:02:58.695Z,22.50
2023-04-15T05:03:58.651Z,22.50
2023-04-15T05:04:58.538Z,22.50
2023-04-15T05:05:58.513Z,28.12
2023-04-15T05:06:58.537Z,33.75
2023-04-15T05:07:58.519Z,39.38
2023-04-15T05:08:58.539Z,39.38
2023-04-15T05:09:58.526Z,50.62
2023-04-15T05:10:58.463Z,67.50
2023-04-15T05:11:58.471Z,78.75
2023-04-15T05:12:58.532Z,84.38
2023-04-15T05:13:58.468Z,73.12
2023-04-15T05:14:58.432Z,73.12
2023-04-15T05:15:58.500Z,90.00
2023-04-15T05:16:58.422Z,112.50
2023-04-15T05:17:58.441Z,129.38
2023-04-15T05:18:58.430Z,146.25
2023-04-15T05:19:58.395Z,151.88
2023-04-15T05:20:58.381Z,151.88
2023-04-15T05:21:58.353Z,157.50
2023-04-15T05:22:58.361Z,163.12
2023-04-15T05:23:58.364Z,168.75
2023-04-15T05:24:58.322Z,180.00
2023-04-15T05:25:58.336Z,174.38
2023-04-15T05:26:58.297Z,174.38
2023-04-15T05:27:58.320Z,174.38
2023-04-15T05:28:58.290Z,180.00
2023-04-15T05:29:58.305Z,174.38
2023-04-15T05:30:58.342Z,174.38
2023-04-15T05:31:58.278Z,180.00
2023-04-15T05:32:58.352Z,191.25
2023-04-15T05:33:58.252Z,202.50
2023-04-15T05:34:58.256Z,202.50
2023-04-15T05:35:58.214Z,202.50
2023-04-15T05:36:58.194Z,202.50
2023-04-15T05:37:58.221Z,208.12
2023-04-15T05:38:58.186Z,208.12
2023-04-15T05:39:58.168Z,202.50
2023-04-15T05:40:58.152Z,202.50
2023-04-15T05:41:58.156Z,208.12
2023-04-15T05:42:58.150Z,213.75
2023-04-15T05:43:58.126Z,219.38
2023-04-15T05:44:58.111Z,230.62
2023-04-15T05:45:58.137Z,236.25
2023-04-15T05:46:58.114Z,247.50
2023-04-15T05:47:58.140Z,247.50
2023-04-15T05:48:58.089Z,241.88
2023-04-15T05:49:58.075Z,236.25
2023-04-15T05:50:58.078Z,230.62
2023-04-15T05:51:58.047Z,202.50
2023-04-15T05:52:58.048Z,157.50
2023-04-15T05:53:58.034Z,112.50
2023-04-15T05:54:58.028Z,95.62
2023-04-15T05:55:58.028Z,90.00
2023-04-15T05:56:58.012Z,90.00
2023-04-15T05:57:57.992Z,90.00
2023-04-15T05:58:57.986Z,90.00
2023-04-15T05:59:57.989Z,90.00
2023-04-15T06:00:57.964Z,84.38
2023-04-15T06:01:57.984Z,90.00
2023-04-15T06:02:58.068Z,95.62
2023-04-15T06:03:58.048Z,101.25
2023-04-15T06:04:58.008Z,106.88
2023-04-15T06:05:57.903Z,101.25
2023-04-15T06:06:57.895Z,101.25
2023-04-15T06:07:57.887Z,101.25
2023-04-15T06:08:57.900Z,106.88
2023-04-15T06:09:57.875Z,112.50
2023-04-15T06:10:57.856Z,118.12
2023-04-15T06:11:57.864Z,123.75
2023-04-15T06:12:57.869Z,123.75
2023-04-15T06:13:57.866Z,129.38
2023-04-15T06:14:59.581Z,135.00
2023-04-15T06:15:57.904Z,135.00
2023-04-15T06:16:57.835Z,129.38
2023-04-15T06:17:57.850Z,118.12
2023-04-15T06:18:57.797Z,118.12
2023-04-15T06:19:57.764Z,118.12
2023-04-15T06:20:57.769Z,118.12
2023-04-15T06:21:57.761Z,118.12
2023-04-15T06:22:57.740Z,123.75
2023-04-15T06:23:57.738Z,140.62
2023-04-15T06:24:57.729Z,163.12
2023-04-15T06:25:57.720Z,174.38
2023-04-15T06:26:57.697Z,174.38
2023-04-15T06:27:58.354Z,191.25
2023-04-15T06:28:57.722Z,185.62
2023-04-15T06:29:57.698Z,174.38
2023-04-15T06:30:57.656Z,180.00
2023-04-15T06:31:57.744Z,180.00
2023-04-15T06:32:57.705Z,185.62
2023-04-15T06:33:57.654Z,196.88
2023-04-15T06:34:57.619Z,191.25
2023-04-15T06:35:57.619Z,202.50
2023-04-15T06:36:57.638Z,208.12
2023-04-15T06:37:57.580Z,202.50
2023-04-15T06:38:57.594Z,196.88
2023-04-15T06:39:57.560Z,196.88
2023-04-15T06:40:57.549Z,202.50
2023-04-15T06:41:57.538Z,196.88
2023-04-15T06:42:57.614Z,191.25
2023-04-15T06:43:57.561Z,191.25
2023-04-15T06:44:57.540Z,196.88
2023-04-15T06:45:57.563Z,191.25
2023-04-15T06:46:57.486Z,202.50
2023-04-15T06:47:57.508Z,208.12
2023-04-15T06:48:57.485Z,196.88
2023-04-15T06:49:57.468Z,196.88
2023-04-15T06:50:57.448Z,180.00
2023-04-15T06:51:57.442Z,180.00
2023-04-15T06:52:57.444Z,174.38
2023-04-15T06:53:57.413Z,180.00
2023-04-15T06:54:57.434Z,174.38
2023-04-15T06:55:57.395Z,185.62
2023-04-15T06:56:57.390Z,196.88
2023-04-15T06:57:57.407Z,185.62
2023-04-15T06:58:57.366Z,185.62
2023-04-15T06:59:57.419Z,180.00
2023-04-15T07:00:57.362Z,185.62
2023-04-15T07:01:57.412Z,180.00
2023-04-15T07:02:57.377Z,168.75
2023-04-15T07:03:57.326Z,168.75
2023-04-15T07:04:57.303Z,168.75
2023-04-15T07:05:57.304Z,180.00
2023-04-15T07:06:57.303Z,168.75
2023-04-15T07:07:57.292Z,174.38
2023-04-15T07:08:57.264Z,191.25
2023-04-15T07:09:57.243Z,202.50
2023-04-15T07:10:57.284Z,219.38
2023-04-15T07:11:57.248Z,225.00
2023-04-15T07:12:57.259Z,230.62
2023-04-15T07:13:57.217Z,247.50
2023-04-15T07:14:57.230Z,247.50
2023-04-15T07:15:57.203Z,236.25
2023-04-15T07:16:57.194Z,241.88
2023-04-15T07:17:57.220Z,247.50
2023-04-15T07:18:57.177Z,264.38
2023-04-15T07:19:57.139Z,219.38
2023-04-15T07:20:57.168Z,247.50
2023-04-15T07:21:57.120Z,236.25
2023-04-15T07:22:57.196Z,219.38
2023-04-15T07:23:57.119Z,202.50
2023-04-15T07:24:57.112Z,213.75
2023-04-15T07:25:57.087Z,196.88
2023-04-15T07:26:58.547Z,191.25
2023-04-15T07:27:57.101Z,180.00
2023-04-15T07:28:57.055Z,168.75
2023-04-15T07:29:57.057Z,185.62
2023-04-15T07:30:57.079Z,174.38
2023-04-15T07:31:57.041Z,174.38
2023-04-15T07:32:57.088Z,151.88
2023-04-15T07:33:57.007Z,163.12
2023-04-15T07:34:57.012Z,163.12
2023-04-15T07:35:56.986Z,163.12
2023-04-15T07:36:56.981Z,163.12
2023-04-15T07:37:56.961Z,151.88
2023-04-15T07:38:56.970Z,146.25
2023-04-15T07:39:56.959Z,140.62
2023-04-15T07:40:56.941Z,140.62
2023-04-15T07:41:56.943Z,146.25
2023-04-15T07:42:56.935Z,157.50
2023-04-15T07:43:56.925Z,163.12
2023-04-15T07:44:56.898Z,163.12
2023-04-15T07:45:56.925Z,157.50
2023-04-15T07:46:56.896Z,157.50
2023-04-15T07:47:56.956Z,151.88
2023-04-15T07:48:56.878Z,151.88
2023-04-15T07:49:56.877Z,151.88
2023-04-15T07:50:56.886Z,157.50
2023-04-15T07:51:56.841Z,163.12
2023-04-15T07:52:56.823Z,168.75
2023-04-15T07:53:56.815Z,180.00
2023-04-15T07:54:56.851Z,174.38
2023-04-15T07:55:56.786Z,163.12
2023-04-15T07:56:56.761Z,202.50
2023-04-15T07:57:56.789Z,168.75
2023-04-15T07:58:56.761Z,196.88
2023-04-15T07:59:56.737Z,180.00
2023-04-15T08:00:56.775Z,151.88
2023-04-15T08:01:56.763Z,180.00
2023-04-15T08:02:56.882Z,174.38
2023-04-15T08:03:56.938Z,208.12
2023-04-15T08:04:56.704Z,202.50
2023-04-15T08:05:56.664Z,196.88
2023-04-15T08:06:56.682Z,174.38
2023-04-15T08:07:56.662Z,213.75
2023-04-15T08:08:56.667Z,213.75
2023-04-15T08:09:56.638Z,202.50
2023-04-15T08:10:56.618Z,202.50
2023-04-15T08:11:56.631Z,202.50
2023-04-15T08:12:56.598Z,196.88
2023-04-15T08:13:56.623Z,191.25
2023-04-15T08:14:56.599Z,180.00
2023-04-15T08:15:56.588Z,191.25
2023-04-15T08:16:56.579Z,196.88
2023-04-15T08:17:56.554Z,185.62
2023-04-15T08:18:56.559Z,191.25
2023-04-15T08:19:56.517Z,196.88
2023-04-15T08:20:56.529Z,191.25
2023-04-15T08:21:56.498Z,185.62
2023-04-15T08:22:56.493Z,180.00
2023-04-15T08:23:56.529Z,174.38
2023-04-15T08:24:56.474Z,185.62
2023-04-15T08:25:56.488Z,185.62
2023-04-15T08:26:56.488Z,163.12
2023-04-15T08:27:56.427Z,157.50
2023-04-15T08:28:56.476Z,146.25
2023-04-15T08:29:56.436Z,140.62
2023-04-15T08:30:56.405Z,140.62
2023-04-15T08:31:56.478Z,135.00
2023-04-15T08:32:56.461Z,140.62
2023-04-15T08:33:56.389Z,140.62
2023-04-15T08:34:56.378Z,140.62
2023-04-15T08:35:56.358Z,140.62
2023-04-15T08:36:56.359Z,135.00
2023-04-15T08:37:56.345Z,129.38
2023-04-15T08:38:56.380Z,123.75
2023-04-15T08:39:56.316Z,123.75
2023-04-15T08:40:56.305Z,123.75
2023-04-15T08:41:56.288Z,123.75
2023-04-15T08:42:56.293Z,123.75
2023-04-15T08:43:56.292Z,123.75
2023-04-15T08:44:56.274Z,123.75
2023-04-15T08:45:56.249Z,123.75
2023-04-15T08:46:56.304Z,123.75
2023-04-15T08:47:56.275Z,123.75
2023-04-15T08:48:56.249Z,123.75
2023-04-15T08:49:56.231Z,129.38
2023-04-15T08:50:56.209Z,129.38
2023-04-15T08:51:56.210Z,129.38
2023-04-15T08:52:56.282Z,135.00
2023-04-15T08:53:56.216Z,135.00
2023-04-15T08:54:56.176Z,129.38
2023-04-15T08:55:56.159Z,129.38
2023-04-15T08:56:56.154Z,135.00
2023-04-15T08:57:56.123Z,135.00
2023-04-15T08:58:56.165Z,135.00
2023-04-15T08:59:56.132Z,135.00
2023-04-15T09:00:56.212Z,135.00
2023-04-15T09:01:56.136Z,135.00
2023-04-15T09:02:56.139Z,135.00
2023-04-15T09:03:56.183Z,135.00
2023-04-15T09:04:56.068Z,135.00
2023-04-15T09:05:56.052Z,135.00
2023-04-15T09:06:56.032Z,135.00
2023-04-15T09:07:56.084Z,135.00
2023-04-15T09:08:56.035Z,140.62
2023-04-15T09:09:56.005Z,140.62
2023-04-15T09:10:56.016Z,146.25
2023-04-15T09:11:56.001Z,151.88
2023-04-15T09:12:55.988Z,163.12
2023-04-15T09:13:56.003Z,168.75
2023-04-15T09:14:55.948Z,163.12
2023-04-15T09:15:55.974Z,163.12
2023-04-15T09:16:56.002Z,163.12
2023-04-15T09:17:55.949Z,168.75
2023-04-15T09:18:55.949Z,168.75
2023-04-15T09:19:55.939Z,163.12
2023-04-15T09:20:55.896Z,163.12
2023-04-15T09:21:58.432Z,163.12
2023-04-15T09:22:55.864Z,163.12
2023-04-15T09:23:55.883Z,157.50
2023-04-15T09:24:55.862Z,151.88
2023-04-15T09:25:55.830Z,157.50
2023-04-15T09:26:55.827Z,151.88
2023-04-15T09:27:55.819Z,157.50
2023-04-15T09:28:55.927Z,157.50
2023-04-15T09:29:55.815Z,146.25
2023-04-15T09:30:55.792Z,140.62
2023-04-15T09:31:55.865Z,146.25
2023-04-15T09:32:55.800Z,135.00
2023-04-15T09:33:55.771Z,129.38
2023-04-15T09:34:55.758Z,129.38
2023-04-15T09:35:55.738Z,129.38
2023-04-15T09:36:55.715Z,140.62
2023-04-15T09:37:55.802Z,146.25
2023-04-15T09:38:55.697Z,151.88
2023-04-15T09:39:55.680Z,151.88
2023-04-15T09:40:55.708Z,157.50
2023-04-15T09:41:55.678Z,163.12
2023-04-15T09:42:55.680Z,163.12
2023-04-15T09:43:55.672Z,157.50
2023-04-15T09:44:55.682Z,157.50
2023-04-15T09:45:55.712Z,157.50
2023-04-15T09:46:55.637Z,163.12
2023-04-15T09:47:56.962Z,163.12
2023-04-15T09:48:55.622Z,146.25
2023-04-15T09:49:55.627Z,157.50
2023-04-15T09:50:55.635Z,157.50
2023-04-15T09:52:04.930Z,151.88
2023-04-15T09:52:55.646Z,151.88
2023-04-15T09:53:55.556Z,151.88
2023-04-15T09:54:55.546Z,151.88
2023-04-15T09:55:55.554Z,151.88
2023-04-15T09:56:55.515Z,151.88
2023-04-15T09:57:55.506Z,157.50
2023-04-15T09:58:55.515Z,146.25
2023-04-15T09:59:55.509Z,157.50
2023-04-15T10:00:55.467Z,163.12
2023-04-15T10:01:55.589Z,163.12
2023-04-15T10:02:55.562Z,163.12
2023-04-15T10:03:55.519Z,157.50
2023-04-15T10:04:55.434Z,157.50
2023-04-15T10:05:55.427Z,157.50
2023-04-15T10:06:55.434Z,151.88
2023-04-15T10:07:55.411Z,157.50
2023-04-15T10:08:55.446Z,157.50
2023-04-15T10:09:55.376Z,146.25
2023-04-15T10:10:55.390Z,146.25
2023-04-15T10:11:55.349Z,157.50
2023-04-15T10:12:55.378Z,157.50
2023-04-15T10:13:55.351Z,157.50
2023-04-15T10:14:55.342Z,151.88
2023-04-15T10:15:55.461Z,135.00
2023-04-15T10:16:55.323Z,129.38
2023-04-15T10:17:55.327Z,129.38
2023-04-15T10:18:55.315Z,129.38
2023-04-15T10:19:55.283Z,129.38
2023-04-15T10:20:55.279Z,129.38
2023-04-15T10:21:55.297Z,129.38
2023-04-15T10:22:55.317Z,129.38
2023-04-15T10:23:55.296Z,146.25
2023-04-15T10:24:55.293Z,146.25
2023-04-15T10:25:55.255Z,140.62
2023-04-15T10:26:55.219Z,146.25
2023-04-15T10:27:55.206Z,135.00
2023-04-15T10:28:55.186Z,135.00
2023-04-15T10:29:55.181Z,135.00
2023-04-15T10:30:55.194Z,129.38
2023-04-15T10:31:55.151Z,129.38
2023-04-15T10:32:55.192Z,129.38
2023-04-15T10:33:55.146Z,123.75
2023-04-15T10:34:55.143Z,123.75
2023-04-15T10:35:55.101Z,123.75
2023-04-15T10:36:55.092Z,123.75
2023-04-15T10:37:55.127Z,123.75
2023-04-15T10:38:55.126Z,123.75
2023-04-15T10:39:55.081Z,123.75
2023-04-15T10:40:55.071Z,123.75
2023-04-15T10:41:55.051Z,123.75
2023-04-15T10:42:55.040Z,123.75
2023-04-15T10:43:55.035Z,123.75
2023-04-15T10:44:55.010Z,123.75
2023-04-15T10:45:55.008Z,123.75
2023-04-15T10:46:55.155Z,123.75
2023-04-15T10:47:55.026Z,118.12
2023-04-15T10:48:55.009Z,118.12
2023-04-15T10:49:54.983Z,118.12
2023-04-15T10:50:54.944Z,112.50
2023-04-15T10:51:54.956Z,106.88
2023-04-15T10:52:54.935Z,106.88
2023-04-15T10:53:54.930Z,101.25
2023-04-15T10:54:54.922Z,101.25
2023-04-15T10:55:54.914Z,95.62
2023-04-15T10:56:54.912Z,90.00
2023-04-15T10:57:54.914Z,84.38
2023-04-15T10:58:54.878Z,78.75
2023-04-15T10:59:54.874Z,78.75
2023-04-15T11:00:54.862Z,73.12
2023-04-15T11:01:55.020Z,73.12
2023-04-15T11:02:54.945Z,73.12
2023-04-15T11:03:54.985Z,73.12
2023-04-15T11:04:55.098Z,73.12
2023-04-15T11:05:54.817Z,73.12
2023-04-15T11:06:54.808Z,73.12
2023-04-15T11:07:54.792Z,73.12
2023-04-15T11:08:54.783Z,73.12
2023-04-15T11:09:54.765Z,73.12
2023-04-15T11:10:54.791Z,67.50
2023-04-15T11:11:54.746Z,67.50
2023-04-15T11:12:54.726Z,67.50
2023-04-15T11:13:54.739Z,73.12
2023-04-15T11:14:54.706Z,73.12
2023-04-15T11:15:54.688Z,78.75
2023-04-15T11:16:54.711Z,84.38
2023-04-15T11:17:54.693Z,84.38
2023-04-15T11:18:54.700Z,90.00
2023-04-15T11:19:54.648Z,101.25
2023-04-15T11:20:54.634Z,106.88
2023-04-15T11:21:54.621Z,112.50
2023-04-15T11:23:13.855Z,112.50
2023-04-15T11:23:54.647Z,118.12
2023-04-15T11:24:54.608Z,118.12
2023-04-15T11:25:54.587Z,123.75
2023-04-15T11:26:54.581Z,123.75
2023-04-15T11:27:54.564Z,146.25
2023-04-15T11:28:54.576Z,140.62
2023-04-15T11:29:54.553Z,140.62
2023-04-15T11:30:54.543Z,129.38
2023-04-15T11:31:54.576Z,129.38
2023-04-15T11:32:54.556Z,129.38
2023-04-15T11:33:54.560Z,123.75
2023-04-15T11:34:54.510Z,123.75
2023-04-15T11:35:54.490Z,118.12
2023-04-15T11:36:54.500Z,112.50
2023-04-15T11:37:54.531Z,112.50
2023-04-15T11:38:54.469Z,118.12
2023-04-15T11:39:54.468Z,118.12
2023-04-15T11:40:54.439Z,118.12
2023-04-15T11:41:54.421Z,123.75
2023-04-15T11:42:54.458Z,129.38
2023-04-15T11:43:54.441Z,135.00
2023-04-15T11:44:54.388Z,123.75
2023-04-15T11:45:54.472Z,123.75
2023-04-15T11:46:54.370Z,140.62
2023-04-15T11:47:54.446Z,146.25
2023-04-15T11:48:54.366Z,146.25
2023-04-15T11:49:54.333Z,135.00
2023-04-15T11:50:54.351Z,140.62
2023-04-15T11:51:54.457Z,146.25
2023-04-15T11:52:54.326Z,140.62
2023-04-15T11:53:54.319Z,140.62
2023-04-15T11:54:54.294Z,140.62
2023-04-15T11:55:54.306Z,140.62
2023-04-15T11:56:54.258Z,140.62
2023-04-15T11:57:54.283Z,129.38
2023-04-15T11:58:54.262Z,129.38
2023-04-15T11:59:54.250Z,129.38
2023-04-15T12:00:54.240Z,140.62
2023-04-15T12:01:54.273Z,140.62
2023-04-15T12:02:54.322Z,140.62
2023-04-15T12:03:54.381Z,129.38
2023-04-15T12:04:54.265Z,129.38
2023-04-15T12:05:54.183Z,135.00
2023-04-15T12:06:54.184Z,140.62
2023-04-15T12:07:54.162Z,129.38
2023-04-15T12:08:54.159Z,129.38
2023-04-15T12:09:54.149Z,135.00
2023-04-15T12:10:54.132Z,140.62
2023-04-15T12:11:54.124Z,135.00
2023-04-15T12:12:54.098Z,140.62
2023-04-15T12:13:54.116Z,140.62
2023-04-15T12:14:54.084Z,135.00
2023-04-15T12:15:54.112Z,135.00
2023-04-15T12:16:54.127Z,135.00
2023-04-15T12:17:54.108Z,135.00
2023-04-15T12:18:54.060Z,140.62
2023-04-15T12:19:54.021Z,135.00
2023-04-15T12:20:54.011Z,129.38
2023-04-15T12:21:54.026Z,135.00
2023-04-15T12:22:54.008Z,135.00
2023-04-15T12:23:54.005Z,129.38
2023-04-15T12:24:53.998Z,135.00
2023-04-15T12:25:53.976Z,135.00
2023-04-15T12:26:54.015Z,135.00
2023-04-15T12:27:53.972Z,129.38
2023-04-15T12:28:53.961Z,135.00
2023-04-15T12:29:53.953Z,123.75
2023-04-15T12:30:54.064Z,112.50
2023-04-15T12:31:53.927Z,118.12
2023-04-15T12:32:53.940Z,118.12
2023-04-15T12:33:53.938Z,101.25
2023-04-15T12:34:53.989Z,101.25
2023-04-15T12:35:53.900Z,101.25
2023-04-15T12:36:53.847Z,101.25
2023-04-15T12:37:53.908Z,101.25
2023-04-15T12:38:53.902Z,101.25
2023-04-15T12:39:53.888Z,101.25
2023-04-15T12:40:53.839Z,106.88
2023-04-15T12:41:53.845Z,112.50
2023-04-15T12:42:53.844Z,118.12
2023-04-15T12:43:53.859Z,106.88
2023-04-15T12:44:53.819Z,101.25
2023-04-15T12:45:53.832Z,118.12
2023-04-15T12:46:53.769Z,123.75
2023-04-15T12:47:53.786Z,106.88